createdAt,value
2019-05-02T00:00:00.302Z,6.64
2019-05-02T00:00:05.478Z,7.02
2019-05-02T00:00:10.304Z,7.14
2019-05-02T00:00:15.309Z,7.18
2019-05-02T00:00:20.306Z,7.19
2019-05-02T00:00:25.311Z,8.49
2019-05-02T00:00:30.309Z,8.75
2019-05-02T00:00:35.309Z,6.99
2019-05-02T00:00:40.309Z,7.13
2019-05-02T00:00:45.318Z,6.46
2019-05-02T00:00:50.313Z,6.66
2019-05-02T00:00:55.313Z,7.02
2019-05-02T00:01:00.316Z,8.27
2019-05-02T00:01:05.314Z,9.25
2019-05-02T00:01:10.315Z,7.87
2019-05-02T00:01:15.319Z,8.00
2019-05-02T00:01:20.317Z,7.76
2019-05-02T00:01:25.414Z,7.38
2019-05-02T00:01:30.322Z,7.26
2019-05-02T00:01:35.733Z,7.22
2019-05-02T00:01:40.320Z,7.87
2019-05-02T00:01:45.324Z,7.42
2019-05-02T00:01:50.326Z,8.40
2019-05-02T00:01:55.325Z,7.59
2019-05-02T00:02:00.446Z,6.96
2019-05-02T00:02:05.328Z,7.12
2019-05-02T00:02:10.499Z,7.93
2019-05-02T00:02:15.342Z,7.44
2019-05-02T00:02:20.328Z,6.61
2019-05-02T00:02:25.329Z,7.01
2019-05-02T00:02:30.331Z,7.14
2019-05-02T00:02:35.332Z,7.18
2019-05-02T00:02:40.333Z,6.47
2019-05-02T00:02:45.335Z,5.30
2019-05-02T00:02:50.335Z,4.16
2019-05-02T00:02:55.344Z,5.08
2019-05-02T00:03:00.352Z,6.50
2019-05-02T00:03:05.338Z,6.31
2019-05-02T00:03:10.339Z,7.63
2019-05-02T00:03:15.340Z,9.04
2019-05-02T00:03:20.341Z,7.80
2019-05-02T00:03:25.342Z,9.15
2019-05-02T00:03:30.341Z,8.14
2019-05-02T00:03:35.347Z,7.51
2019-05-02T00:03:40.346Z,9.43
2019-05-02T00:03:45.347Z,10.35
2019-05-02T00:03:50.346Z,11.95
2019-05-02T00:03:55.372Z,10.18
2019-05-02T00:04:00.352Z,9.93
2019-05-02T00:04:05.349Z,9.33
2019-05-02T00:04:10.353Z,7.90
2019-05-02T00:04:15.352Z,7.43
2019-05-02T00:04:20.353Z,7.28
2019-05-02T00:04:25.353Z,7.22
2019-05-02T00:04:30.354Z,6.75
2019-05-02T00:04:35.356Z,7.05
2019-05-02T00:04:40.357Z,8.56
2019-05-02T00:04:45.357Z,7.64
2019-05-02T00:04:50.360Z,7.35
2019-05-02T00:04:55.360Z,7.97
2019-05-02T00:05:00.361Z,7.45
2019-05-02T00:05:05.361Z,7.28
2019-05-02T00:05:10.361Z,7.95
2019-05-02T00:05:15.365Z,8.46
2019-05-02T00:05:20.364Z,7.91
2019-05-02T00:05:25.364Z,7.43
2019-05-02T00:05:30.367Z,8.40
2019-05-02T00:05:35.369Z,7.13
2019-05-02T00:05:40.368Z,7.64
2019-05-02T00:05:45.370Z,7.34
2019-05-02T00:05:50.370Z,8.65
2019-05-02T00:05:55.373Z,7.68
2019-05-02T00:06:00.372Z,8.91
2019-05-02T00:06:05.373Z,8.05
2019-05-02T00:06:10.373Z,7.48
2019-05-02T00:06:15.376Z,7.29
2019-05-02T00:06:20.375Z,7.95
2019-05-02T00:06:25.380Z,7.74
2019-05-02T00:06:30.380Z,7.73
2019-05-02T00:06:35.380Z,8.04
2019-05-02T00:06:40.379Z,7.47
2019-05-02T00:06:45.383Z,7.66
2019-05-02T00:06:50.383Z,7.35
2019-05-02T00:06:55.383Z,6.67
2019-05-02T00:07:00.383Z,7.31
2019-05-02T00:07:05.385Z,7.24
2019-05-02T00:07:10.390Z,7.21
2019-05-02T00:07:15.387Z,7.20
2019-05-02T00:07:20.391Z,7.20
2019-05-02T00:07:25.389Z,8.90
2019-05-02T00:07:30.392Z,9.46
2019-05-02T00:07:35.391Z,7.94
2019-05-02T00:07:41.182Z,9.57
2019-05-02T00:07:45.393Z,8.27
2019-05-02T00:07:50.391Z,7.55
2019-05-02T00:07:55.397Z,8.61
2019-05-02T00:08:00.398Z,8.42
2019-05-02T00:08:05.395Z,6.30
2019-05-02T00:08:10.422Z,4.49
2019-05-02T00:08:15.400Z,6.02
2019-05-02T00:08:20.399Z,8.11
2019-05-02T00:08:25.401Z,9.62
2019-05-02T00:08:30.400Z,8.29
2019-05-02T00:08:35.406Z,9.89
2019-05-02T00:08:40.403Z,10.87
2019-05-02T00:08:45.404Z,10.10
2019-05-02T00:08:50.404Z,8.15
2019-05-02T00:08:55.404Z,7.51
2019-05-02T00:09:00.409Z,7.30
2019-05-02T00:09:05.406Z,8.93
2019-05-02T00:09:10.408Z,9.06
2019-05-02T00:09:15.410Z,9.81
2019-05-02T00:09:20.410Z,8.05
2019-05-02T00:09:25.410Z,10.22
2019-05-02T00:09:30.413Z,13.32
2019-05-02T00:09:35.637Z,13.68
2019-05-02T00:09:40.415Z,12.41
2019-05-02T00:09:45.722Z,13.03
2019-05-02T00:09:50.415Z,11.53
2019-05-02T00:09:55.420Z,10.46
2019-05-02T00:10:00.421Z,11.73
2019-05-02T00:10:05.421Z,11.10
2019-05-02T00:10:10.760Z,10.90
2019-05-02T00:10:15.427Z,10.11
2019-05-02T00:10:20.423Z,10.57
2019-05-02T00:10:25.424Z,9.06
2019-05-02T00:10:30.424Z,9.94
2019-05-02T00:10:35.426Z,9.80
2019-05-02T00:10:40.427Z,8.77
2019-05-02T00:10:45.427Z,9.56
2019-05-02T00:10:50.720Z,9.10
2019-05-02T00:10:55.431Z,9.95
2019-05-02T00:11:00.431Z,8.76
2019-05-02T00:11:05.430Z,7.71
2019-05-02T00:11:10.432Z,7.37
2019-05-02T00:11:15.435Z,8.08
2019-05-02T00:11:20.433Z,8.50
2019-05-02T00:11:25.436Z,9.59
2019-05-02T00:11:30.436Z,8.28
2019-05-02T00:11:35.439Z,7.55
2019-05-02T00:11:40.439Z,8.79
2019-05-02T00:11:45.441Z,9.85
2019-05-02T00:11:50.439Z,9.91
2019-05-02T00:11:55.440Z,10.51
2019-05-02T00:12:00.442Z,10.70
2019-05-02T00:12:05.444Z,10.77
2019-05-02T00:12:10.443Z,11.37
2019-05-02T00:12:15.445Z,10.99
2019-05-02T00:12:20.447Z,10.03
2019-05-02T00:12:25.447Z,10.55
2019-05-02T00:12:30.447Z,10.72
2019-05-02T00:12:35.448Z,10.77
2019-05-02T00:12:40.448Z,11.92
2019-05-02T00:12:45.452Z,9.04
2019-05-02T00:12:50.453Z,8.52
2019-05-02T00:12:55.454Z,10.05
2019-05-02T00:13:00.453Z,10.09
2019-05-02T00:13:05.455Z,10.57
2019-05-02T00:13:10.485Z,10.43
2019-05-02T00:13:15.486Z,10.22
2019-05-02T00:13:20.486Z,10.61
2019-05-02T00:13:25.488Z,9.91
2019-05-02T00:13:30.487Z,10.51
2019-05-02T00:13:35.491Z,11.42
2019-05-02T00:13:40.492Z,11.00
2019-05-02T00:13:45.491Z,9.69
2019-05-02T00:13:50.494Z,10.07
2019-05-02T00:13:55.493Z,10.26
2019-05-02T00:14:00.493Z,9.50
2019-05-02T00:14:05.496Z,9.25
2019-05-02T00:14:10.497Z,10.29
2019-05-02T00:14:15.502Z,8.97
2019-05-02T00:14:20.499Z,9.08
2019-05-02T00:14:25.501Z,9.20
2019-05-02T00:14:30.501Z,10.28
2019-05-02T00:14:35.501Z,10.63
2019-05-02T00:14:40.504Z,8.62
2019-05-02T00:14:45.503Z,10.09
2019-05-02T00:14:50.505Z,9.90
2019-05-02T00:14:55.506Z,10.51
2019-05-02T00:15:00.507Z,10.70
2019-05-02T00:15:05.509Z,9.47
2019-05-02T00:15:10.508Z,10.00
2019-05-02T00:15:15.509Z,9.24
2019-05-02T00:15:20.510Z,8.59
2019-05-02T00:15:25.515Z,10.08
2019-05-02T00:15:30.512Z,10.56
2019-05-02T00:15:35.515Z,10.72
2019-05-02T00:15:40.514Z,10.77
2019-05-02T00:15:45.520Z,10.50
2019-05-02T00:15:50.516Z,10.70
2019-05-02T00:15:55.518Z,10.77
2019-05-02T00:16:00.522Z,12.55
2019-05-02T00:16:05.522Z,11.67
2019-05-02T00:16:10.520Z,11.08
2019-05-02T00:16:15.521Z,9.23
2019-05-02T00:16:20.523Z,9.57
2019-05-02T00:16:25.523Z,10.10
2019-05-02T00:16:30.525Z,10.57
2019-05-02T00:16:35.526Z,10.72
2019-05-02T00:16:40.526Z,10.78
2019-05-02T00:16:45.527Z,11.09
2019-05-02T00:16:50.530Z,9.49
2019-05-02T00:16:55.531Z,11.09
2019-05-02T00:17:00.529Z,10.90
2019-05-02T00:17:05.535Z,11.13
2019-05-02T00:17:10.531Z,12.31
2019-05-02T00:17:15.533Z,10.83
2019-05-02T00:17:20.533Z,12.22
2019-05-02T00:17:25.535Z,11.26
2019-05-02T00:17:30.535Z,11.67
2019-05-02T00:17:35.696Z,11.09
2019-05-02T00:17:40.538Z,10.89
2019-05-02T00:17:45.541Z,11.46
2019-05-02T00:17:50.540Z,11.31
2019-05-02T00:17:55.541Z,10.97
2019-05-02T00:18:00.542Z,10.85
2019-05-02T00:18:05.543Z,10.82
2019-05-02T00:18:10.545Z,10.23
2019-05-02T00:18:15.545Z,10.61
2019-05-02T00:18:20.546Z,10.74
2019-05-02T00:18:25.740Z,10.78
2019-05-02T00:18:30.553Z,9.67
2019-05-02T00:18:35.549Z,8.47
2019-05-02T00:18:40.549Z,7.62
2019-05-02T00:18:46.193Z,9.46
2019-05-02T00:18:50.551Z,9.32
2019-05-02T00:18:55.552Z,8.91
2019-05-02T00:19:00.553Z,8.89
2019-05-02T00:19:05.554Z,9.51
2019-05-02T00:19:10.554Z,10.38
2019-05-02T00:19:15.561Z,10.09
2019-05-02T00:19:20.557Z,10.57
2019-05-02T00:19:25.558Z,10.72
2019-05-02T00:19:30.558Z,9.59
2019-05-02T00:19:35.732Z,10.04
2019-05-02T00:19:40.561Z,9.61
2019-05-02T00:19:45.563Z,8.71
2019-05-02T00:19:50.566Z,8.87
2019-05-02T00:19:55.565Z,9.45
2019-05-02T00:20:00.566Z,8.66
2019-05-02T00:20:05.567Z,9.43
2019-05-02T00:20:10.567Z,9.02
2019-05-02T00:20:15.567Z,8.37
2019-05-02T00:20:20.569Z,10.00
2019-05-02T00:20:25.570Z,8.41
2019-05-02T00:20:30.571Z,8.78
2019-05-02T00:20:35.574Z,10.14
2019-05-02T00:20:40.573Z,10.58
2019-05-02T00:20:45.575Z,9.55
2019-05-02T00:20:50.574Z,9.09
2019-05-02T00:20:55.577Z,9.12
2019-05-02T00:21:00.579Z,9.79
2019-05-02T00:21:05.579Z,12.23
2019-05-02T00:21:10.578Z,12.39
2019-05-02T00:21:15.580Z,11.03
2019-05-02T00:21:20.580Z,10.87
2019-05-02T00:21:25.582Z,10.82
2019-05-02T00:21:30.582Z,8.68
2019-05-02T00:21:35.583Z,8.87
2019-05-02T00:21:40.584Z,10.17
2019-05-02T00:21:45.587Z,9.30
2019-05-02T00:21:50.588Z,10.31
2019-05-02T00:21:55.587Z,10.27
2019-05-02T00:22:00.589Z,10.63
2019-05-02T00:22:05.590Z,11.04
2019-05-02T00:22:10.591Z,9.84
2019-05-02T00:22:15.594Z,10.49
2019-05-02T00:22:20.591Z,10.70
2019-05-02T00:22:25.593Z,9.01
2019-05-02T00:22:30.595Z,9.92
2019-05-02T00:22:35.595Z,9.64
2019-05-02T00:22:40.596Z,10.13
2019-05-02T00:22:45.599Z,9.75
2019-05-02T00:22:50.597Z,9.74
2019-05-02T00:22:55.601Z,8.75
2019-05-02T00:23:00.600Z,9.09
2019-05-02T00:23:05.602Z,8.54
2019-05-02T00:23:10.602Z,8.76
2019-05-02T00:23:15.628Z,9.19
2019-05-02T00:23:20.661Z,9.55
2019-05-02T00:23:25.605Z,9.27
2019-05-02T00:23:30.606Z,9.72
2019-05-02T00:23:35.609Z,8.49
2019-05-02T00:23:40.607Z,7.62
2019-05-02T00:23:45.610Z,7.34
2019-05-02T00:23:50.611Z,7.25
2019-05-02T00:23:55.611Z,8.97
2019-05-02T00:24:00.612Z,8.90
2019-05-02T00:24:05.879Z,7.76
2019-05-02T00:24:10.613Z,7.38
2019-05-02T00:24:15.615Z,9.39
2019-05-02T00:24:20.616Z,9.21
2019-05-02T00:24:25.618Z,9.56
2019-05-02T00:24:30.617Z,7.97
2019-05-02T00:24:35.705Z,8.17
2019-05-02T00:24:40.619Z,7.81
2019-05-02T00:24:45.621Z,7.40
2019-05-02T00:24:50.621Z,7.99
2019-05-02T00:24:55.622Z,9.51
2019-05-02T00:25:00.622Z,7.96
2019-05-02T00:25:05.624Z,7.45
2019-05-02T00:25:10.625Z,7.28
2019-05-02T00:25:15.627Z,7.60
2019-05-02T00:25:20.628Z,9.45
2019-05-02T00:25:25.632Z,8.23
2019-05-02T00:25:30.629Z,5.78
2019-05-02T00:25:35.629Z,4.68
2019-05-02T00:25:40.632Z,3.96
2019-05-02T00:25:45.631Z,3.72
2019-05-02T00:25:50.632Z,4.01
2019-05-02T00:25:55.634Z,5.21
2019-05-02T00:26:00.634Z,5.42
2019-05-02T00:26:05.643Z,6.62
2019-05-02T00:26:10.635Z,7.01
2019-05-02T00:26:15.639Z,7.14
2019-05-02T00:26:20.640Z,6.00
2019-05-02T00:26:25.650Z,5.11
2019-05-02T00:26:30.642Z,6.51
2019-05-02T00:26:35.643Z,6.61
2019-05-02T00:26:40.643Z,8.04
2019-05-02T00:26:45.644Z,7.02
2019-05-02T00:26:50.647Z,5.18
2019-05-02T00:26:55.646Z,5.41
2019-05-02T00:27:00.651Z,6.61
2019-05-02T00:27:05.649Z,7.01
2019-05-02T00:27:10.649Z,7.14
2019-05-02T00:27:15.652Z,7.47
2019-05-02T00:27:20.651Z,7.29
2019-05-02T00:27:25.660Z,7.23
2019-05-02T00:27:30.652Z,8.45
2019-05-02T00:27:35.655Z,8.91
2019-05-02T00:27:40.656Z,9.05
2019-05-02T00:27:45.655Z,7.81
2019-05-02T00:27:50.657Z,7.40
2019-05-02T00:27:55.656Z,8.09
2019-05-02T00:28:00.658Z,7.49
2019-05-02T00:28:05.662Z,8.13
2019-05-02T00:28:10.659Z,7.50
2019-05-02T00:28:15.660Z,7.30
2019-05-02T00:28:20.663Z,6.40
2019-05-02T00:28:25.668Z,6.22
2019-05-02T00:28:30.666Z,6.58
2019-05-02T00:28:35.665Z,6.54
2019-05-02T00:28:40.815Z,6.61
2019-05-02T00:28:45.667Z,7.01
2019-05-02T00:28:50.670Z,5.38
2019-05-02T00:28:55.668Z,4.18
2019-05-02T00:29:00.671Z,3.79
2019-05-02T00:29:05.673Z,4.12
2019-05-02T00:29:10.672Z,3.77
2019-05-02T00:29:15.674Z,3.66
2019-05-02T00:29:20.673Z,4.71
2019-05-02T00:29:25.677Z,3.96
2019-05-02T00:29:30.676Z,3.72
2019-05-02T00:29:35.679Z,3.64
2019-05-02T00:29:40.845Z,5.37
2019-05-02T00:29:45.679Z,7.32
2019-05-02T00:29:50.681Z,7.24
2019-05-02T00:29:55.682Z,7.21
2019-05-02T00:30:00.680Z,7.20
2019-05-02T00:30:05.682Z,7.20
2019-05-02T00:30:10.684Z,7.20
2019-05-02T00:30:15.684Z,7.20
2019-05-02T00:30:20.686Z,7.20
2019-05-02T00:30:25.688Z,8.50
2019-05-02T00:30:30.687Z,10.05
2019-05-02T00:30:35.688Z,8.43
2019-05-02T00:30:40.690Z,7.60
2019-05-02T00:30:45.690Z,6.09
2019-05-02T00:30:50.692Z,6.84
2019-05-02T00:30:55.692Z,5.79
2019-05-02T00:31:00.704Z,4.68
2019-05-02T00:31:05.695Z,6.01
2019-05-02T00:31:10.697Z,6.81
2019-05-02T00:31:15.698Z,6.06
2019-05-02T00:31:20.698Z,6.36
2019-05-02T00:31:25.698Z,6.21
2019-05-02T00:31:30.698Z,4.82
2019-05-02T00:31:35.701Z,5.30
2019-05-02T00:31:40.703Z,6.00
2019-05-02T00:31:45.702Z,5.94
2019-05-02T00:31:50.727Z,6.49
2019-05-02T00:31:55.703Z,6.97
2019-05-02T00:32:00.705Z,7.12
2019-05-02T00:32:05.705Z,6.46
2019-05-02T00:32:10.709Z,4.83
2019-05-02T00:32:15.709Z,4.30
2019-05-02T00:32:20.708Z,5.59
2019-05-02T00:32:25.709Z,6.67
2019-05-02T00:32:30.712Z,7.03
2019-05-02T00:32:35.712Z,7.44
2019-05-02T00:32:40.713Z,7.28
2019-05-02T00:32:45.714Z,7.23
2019-05-02T00:32:50.717Z,7.93
2019-05-02T00:32:55.717Z,7.44
2019-05-02T00:33:00.718Z,9.12
2019-05-02T00:33:05.717Z,7.83
2019-05-02T00:33:10.719Z,7.70
2019-05-02T00:33:15.721Z,6.79
2019-05-02T00:33:20.722Z,4.64
2019-05-02T00:33:25.723Z,5.90
2019-05-02T00:33:30.725Z,4.35
2019-05-02T00:33:35.726Z,3.85
2019-05-02T00:33:40.724Z,4.14
2019-05-02T00:33:45.726Z,5.07
2019-05-02T00:33:50.728Z,6.50
2019-05-02T00:33:55.728Z,6.97
2019-05-02T00:34:00.729Z,5.83
2019-05-02T00:34:05.731Z,6.38
2019-05-02T00:34:10.823Z,8.23
2019-05-02T00:34:15.730Z,8.55
2019-05-02T00:34:20.733Z,8.77
2019-05-02T00:34:25.733Z,9.84
2019-05-02T00:34:30.734Z,8.36
2019-05-02T00:34:35.737Z,7.58
2019-05-02T00:34:40.739Z,7.32
2019-05-02T00:34:45.738Z,7.24
2019-05-02T00:34:50.739Z,7.21
2019-05-02T00:34:55.741Z,7.20
2019-05-02T00:35:00.744Z,7.20
2019-05-02T00:35:05.748Z,6.44
2019-05-02T00:35:10.745Z,6.95
2019-05-02T00:35:15.746Z,7.12
2019-05-02T00:35:20.748Z,7.17
2019-05-02T00:35:25.751Z,7.19
2019-05-02T00:35:30.749Z,7.20
2019-05-02T00:35:35.748Z,5.44
2019-05-02T00:35:40.751Z,4.92
2019-05-02T00:35:45.881Z,6.45
2019-05-02T00:35:50.753Z,6.96
2019-05-02T00:35:55.756Z,5.71
2019-05-02T00:36:00.754Z,6.71
2019-05-02T00:36:05.757Z,6.58
2019-05-02T00:36:10.755Z,6.28
2019-05-02T00:36:15.757Z,6.32
2019-05-02T00:36:20.758Z,4.49
2019-05-02T00:36:25.763Z,3.89
2019-05-02T00:36:30.761Z,3.70
2019-05-02T00:36:36.534Z,4.35
2019-05-02T00:36:40.762Z,5.55
2019-05-02T00:36:45.765Z,6.66
2019-05-02T00:36:50.766Z,7.02
2019-05-02T00:36:55.767Z,7.14
2019-05-02T00:37:00.767Z,6.06
2019-05-02T00:37:05.766Z,6.83
2019-05-02T00:37:10.771Z,7.08
2019-05-02T00:37:15.769Z,7.16
2019-05-02T00:37:20.770Z,6.17
2019-05-02T00:37:25.776Z,5.77
2019-05-02T00:37:30.773Z,6.36
2019-05-02T00:37:35.773Z,7.29
2019-05-02T00:37:40.775Z,7.23
2019-05-02T00:37:45.778Z,7.21
2019-05-02T00:37:50.777Z,7.78
2019-05-02T00:37:55.778Z,7.39
2019-05-02T00:38:00.777Z,7.26
2019-05-02T00:38:05.779Z,5.92
2019-05-02T00:38:10.781Z,6.12
2019-05-02T00:38:15.780Z,6.85
2019-05-02T00:38:20.783Z,7.08
2019-05-02T00:38:25.920Z,7.88
2019-05-02T00:38:30.816Z,8.09
2019-05-02T00:38:35.785Z,8.21
2019-05-02T00:38:40.790Z,8.66
2019-05-02T00:38:45.787Z,9.43
2019-05-02T00:38:50.788Z,8.69
2019-05-02T00:38:55.790Z,8.70
2019-05-02T00:39:00.790Z,10.11
2019-05-02T00:39:05.790Z,10.57
2019-05-02T00:39:10.793Z,9.55
2019-05-02T00:39:15.793Z,8.43
2019-05-02T00:39:20.793Z,7.60
2019-05-02T00:39:25.795Z,7.33
2019-05-02T00:39:31.158Z,9.00
2019-05-02T00:39:35.798Z,7.79
2019-05-02T00:39:40.799Z,8.69
2019-05-02T00:39:45.799Z,7.98
2019-05-02T00:39:50.800Z,7.46
2019-05-02T00:39:55.802Z,8.00
2019-05-02T00:40:00.802Z,7.76
2019-05-02T00:40:05.803Z,7.75
2019-05-02T00:40:10.803Z,7.38
2019-05-02T00:40:15.804Z,7.63
2019-05-02T00:40:20.806Z,7.34
2019-05-02T00:40:25.808Z,7.25
2019-05-02T00:40:30.807Z,7.94
2019-05-02T00:40:35.807Z,7.90
2019-05-02T00:40:40.811Z,9.85
2019-05-02T00:40:45.810Z,8.07
2019-05-02T00:40:50.810Z,9.61
2019-05-02T00:40:55.813Z,8.28
2019-05-02T00:41:00.813Z,7.85
2019-05-02T00:41:05.819Z,7.41
2019-05-02T00:41:10.813Z,7.27
2019-05-02T00:41:15.816Z,7.22
2019-05-02T00:41:20.816Z,7.21
2019-05-02T00:41:26.044Z,7.20
2019-05-02T00:41:30.819Z,7.20
2019-05-02T00:41:35.822Z,7.20
2019-05-02T00:41:40.821Z,6.48
2019-05-02T00:41:45.822Z,4.84
2019-05-02T00:41:50.828Z,6.43
2019-05-02T00:41:55.825Z,7.41
2019-05-02T00:42:00.825Z,7.27
2019-05-02T00:42:05.832Z,7.22
2019-05-02T00:42:10.828Z,6.03
2019-05-02T00:42:15.832Z,5.06
2019-05-02T00:42:20.835Z,4.65
2019-05-02T00:42:25.831Z,5.90
2019-05-02T00:42:30.829Z,5.48
2019-05-02T00:42:35.832Z,6.34
2019-05-02T00:42:40.834Z,6.92
2019-05-02T00:42:45.834Z,7.11
2019-05-02T00:42:50.833Z,7.17
2019-05-02T00:42:56.020Z,6.90
2019-05-02T00:43:00.837Z,7.10
2019-05-02T00:43:05.837Z,8.92
2019-05-02T00:43:10.841Z,8.06
2019-05-02T00:43:15.838Z,8.78
2019-05-02T00:43:20.841Z,8.01
2019-05-02T00:43:25.842Z,7.10
2019-05-02T00:43:30.842Z,7.46
2019-05-02T00:43:35.844Z,7.29
2019-05-02T00:43:40.845Z,7.23
2019-05-02T00:43:45.846Z,7.21
2019-05-02T00:43:50.845Z,7.87
2019-05-02T00:43:55.855Z,7.42
2019-05-02T00:44:00.849Z,5.15
2019-05-02T00:44:05.850Z,4.11
2019-05-02T00:44:10.851Z,6.19
2019-05-02T00:44:15.852Z,6.87
2019-05-02T00:44:20.853Z,7.09
2019-05-02T00:44:25.854Z,6.50
2019-05-02T00:44:30.853Z,6.25
2019-05-02T00:44:35.855Z,6.89
2019-05-02T00:44:40.856Z,7.10
2019-05-02T00:44:45.858Z,7.17
2019-05-02T00:44:50.858Z,6.47
2019-05-02T00:44:55.859Z,4.54
2019-05-02T00:45:00.865Z,3.91
2019-05-02T00:45:05.862Z,5.00
2019-05-02T00:45:10.916Z,5.18
2019-05-02T00:45:15.865Z,4.12
2019-05-02T00:45:20.864Z,3.77
2019-05-02T00:45:25.863Z,4.23
2019-05-02T00:45:30.868Z,3.81
2019-05-02T00:45:35.867Z,3.67
2019-05-02T00:45:40.875Z,3.62
2019-05-02T00:45:45.869Z,3.61
2019-05-02T00:45:50.869Z,2.88
2019-05-02T00:45:55.869Z,3.36
2019-05-02T00:46:01.912Z,3.52
2019-05-02T00:46:05.873Z,3.57
2019-05-02T00:46:10.876Z,3.59
2019-05-02T00:46:15.873Z,3.60
2019-05-02T00:46:20.875Z,3.60
2019-05-02T00:46:25.874Z,3.89
2019-05-02T00:46:31.374Z,4.07
2019-05-02T00:46:35.879Z,3.75
2019-05-02T00:46:40.880Z,4.02
2019-05-02T00:46:46.038Z,4.86
2019-05-02T00:46:50.880Z,4.01
2019-05-02T00:46:55.882Z,3.74
2019-05-02T00:47:00.885Z,5.05
2019-05-02T00:47:05.883Z,4.37
2019-05-02T00:47:10.885Z,4.57
2019-05-02T00:47:15.884Z,4.21
2019-05-02T00:47:20.887Z,4.63
2019-05-02T00:47:25.888Z,5.99
2019-05-02T00:47:30.890Z,5.97
2019-05-02T00:47:35.897Z,5.32
2019-05-02T00:47:40.891Z,5.86
2019-05-02T00:47:45.890Z,4.34
2019-05-02T00:47:50.892Z,3.84
2019-05-02T00:47:55.893Z,3.68
2019-05-02T00:48:00.897Z,3.63
2019-05-02T00:48:05.897Z,3.61
2019-05-02T00:48:10.897Z,3.60
2019-05-02T00:48:15.902Z,3.60
2019-05-02T00:48:20.902Z,3.60
2019-05-02T00:48:25.902Z,3.60
2019-05-02T00:48:31.029Z,3.60
2019-05-02T00:48:35.905Z,3.60
2019-05-02T00:48:40.902Z,3.60
2019-05-02T00:48:45.951Z,3.23
2019-05-02T00:48:50.904Z,3.48
2019-05-02T00:48:55.905Z,3.56
2019-05-02T00:49:01.362Z,3.59
2019-05-02T00:49:05.910Z,3.60
2019-05-02T00:49:10.910Z,3.60
2019-05-02T00:49:15.910Z,3.60
2019-05-02T00:49:20.912Z,3.60
2019-05-02T00:49:25.909Z,3.02
2019-05-02T00:49:30.911Z,2.95
2019-05-02T00:49:35.915Z,3.39
2019-05-02T00:49:40.914Z,3.53
2019-05-02T00:49:45.914Z,3.58
2019-05-02T00:49:50.917Z,3.02
2019-05-02T00:49:55.916Z,2.46
2019-05-02T00:50:00.918Z,3.23
2019-05-02T00:50:05.919Z,3.48
2019-05-02T00:50:10.919Z,3.56
2019-05-02T00:50:15.920Z,3.59
2019-05-02T00:50:20.921Z,3.60
2019-05-02T00:50:25.922Z,3.60
2019-05-02T00:50:30.924Z,3.60
2019-05-02T00:50:35.923Z,3.60
2019-05-02T00:50:40.926Z,3.60
2019-05-02T00:50:46.264Z,3.02
2019-05-02T00:50:50.930Z,3.41
2019-05-02T00:50:55.928Z,3.91
2019-05-02T00:51:00.933Z,3.70
2019-05-02T00:51:05.933Z,3.63
2019-05-02T00:51:10.932Z,3.61
2019-05-02T00:51:15.934Z,3.60
2019-05-02T00:51:20.938Z,5.27
2019-05-02T00:51:25.934Z,5.27
2019-05-02T00:51:30.938Z,4.15
2019-05-02T00:51:35.936Z,3.78
2019-05-02T00:51:40.937Z,4.03
2019-05-02T00:51:45.937Z,5.87
2019-05-02T00:51:50.939Z,5.64
2019-05-02T00:51:55.941Z,6.39
2019-05-02T00:52:01.040Z,6.94
2019-05-02T00:52:05.945Z,7.11
2019-05-02T00:52:10.945Z,5.88
2019-05-02T00:52:15.945Z,6.10
2019-05-02T00:52:20.945Z,4.79
2019-05-02T00:52:25.945Z,5.75
2019-05-02T00:52:30.947Z,6.72
2019-05-02T00:52:35.949Z,4.62
2019-05-02T00:52:40.948Z,3.94
2019-05-02T00:52:45.949Z,3.71
2019-05-02T00:52:50.950Z,6.06
2019-05-02T00:52:55.954Z,5.53
2019-05-02T00:53:00.951Z,5.53
2019-05-02T00:53:06.000Z,6.65
2019-05-02T00:53:10.955Z,7.02
2019-05-02T00:53:15.957Z,7.14
2019-05-02T00:53:20.957Z,7.18
2019-05-02T00:53:25.959Z,7.49
2019-05-02T00:53:30.958Z,6.47
2019-05-02T00:53:35.960Z,7.42
2019-05-02T00:53:40.962Z,7.27
2019-05-02T00:53:45.961Z,6.85
2019-05-02T00:53:50.964Z,7.09
2019-05-02T00:53:55.963Z,7.16
2019-05-02T00:54:00.965Z,5.89
2019-05-02T00:54:05.967Z,6.48
2019-05-02T00:54:10.966Z,7.42
2019-05-02T00:54:15.969Z,7.27
2019-05-02T00:54:20.969Z,7.22
2019-05-02T00:54:25.972Z,7.21
2019-05-02T00:54:30.970Z,7.20
2019-05-02T00:54:35.972Z,7.20
2019-05-02T00:54:40.973Z,7.57
2019-05-02T00:54:45.975Z,7.32
2019-05-02T00:54:51.256Z,7.24
2019-05-02T00:54:55.975Z,7.21
2019-05-02T00:55:00.976Z,7.20
2019-05-02T00:55:06.109Z,5.91
2019-05-02T00:55:10.981Z,7.24
2019-05-02T00:55:15.981Z,7.21
2019-05-02T00:55:20.981Z,6.48
2019-05-02T00:55:25.980Z,8.26
2019-05-02T00:55:30.981Z,7.55
2019-05-02T00:55:35.981Z,8.03
2019-05-02T00:55:40.985Z,7.47
2019-05-02T00:55:45.985Z,7.29
2019-05-02T00:55:50.986Z,7.23
2019-05-02T00:55:55.988Z,6.91
2019-05-02T00:56:00.987Z,7.11
2019-05-02T00:56:05.988Z,5.41
2019-05-02T00:56:10.991Z,4.19
2019-05-02T00:56:15.991Z,3.79
2019-05-02T00:56:21.028Z,5.79
2019-05-02T00:56:26.029Z,8.86
2019-05-02T00:56:31.029Z,8.41
2019-05-02T00:56:36.030Z,5.54
2019-05-02T00:56:41.031Z,4.24
2019-05-02T00:56:46.031Z,4.53
2019-05-02T00:56:51.033Z,6.32
2019-05-02T00:56:56.034Z,7.37
2019-05-02T00:57:01.035Z,8.44
2019-05-02T00:57:06.040Z,7.61
2019-05-02T00:57:11.038Z,7.33
2019-05-02T00:57:16.038Z,7.96
2019-05-02T00:57:21.038Z,8.11
2019-05-02T00:57:26.046Z,6.92
2019-05-02T00:57:31.040Z,4.69
2019-05-02T00:57:36.041Z,6.38
2019-05-02T00:57:41.042Z,7.76
2019-05-02T00:57:46.046Z,7.38
2019-05-02T00:57:51.045Z,4.84
2019-05-02T00:57:56.045Z,4.73
2019-05-02T00:58:01.047Z,6.39
2019-05-02T00:58:06.048Z,6.93
2019-05-02T00:58:11.048Z,7.11
2019-05-02T00:58:16.050Z,7.17
2019-05-02T00:58:21.051Z,6.61
2019-05-02T00:58:26.052Z,5.31
2019-05-02T00:58:31.053Z,5.40
2019-05-02T00:58:36.054Z,6.87
2019-05-02T00:58:41.055Z,9.51
2019-05-02T00:58:46.056Z,9.20
2019-05-02T00:58:51.057Z,7.85
2019-05-02T00:58:56.058Z,6.69
2019-05-02T00:59:01.060Z,4.98
2019-05-02T00:59:06.059Z,4.77
2019-05-02T00:59:11.062Z,6.11
2019-05-02T00:59:16.062Z,5.55
2019-05-02T00:59:21.062Z,4.53
2019-05-02T00:59:26.063Z,3.91
2019-05-02T00:59:31.065Z,3.70
2019-05-02T00:59:36.065Z,4.81
2019-05-02T00:59:41.066Z,6.42
2019-05-02T00:59:46.068Z,6.94
2019-05-02T00:59:51.067Z,7.78
2019-05-02T00:59:56.070Z,5.26
2019-05-02T01:00:01.068Z,6.62
2019-05-02T01:00:06.071Z,7.31
2019-05-02T01:00:11.173Z,6.77
2019-05-02T01:00:16.075Z,6.69
2019-05-02T01:00:21.074Z,6.31
2019-05-02T01:00:26.076Z,6.25
2019-05-02T01:00:31.076Z,6.89
2019-05-02T01:00:36.076Z,7.10
2019-05-02T01:00:41.078Z,5.87
2019-05-02T01:00:46.080Z,4.34
2019-05-02T01:00:51.081Z,4.56
2019-05-02T01:00:56.080Z,6.34
2019-05-02T01:01:01.081Z,9.04
2019-05-02T01:01:06.082Z,7.08
2019-05-02T01:01:11.414Z,7.16
2019-05-02T01:01:16.088Z,7.19
2019-05-02T01:01:21.087Z,4.78
2019-05-02T01:01:26.085Z,5.28
2019-05-02T01:01:31.087Z,7.15
2019-05-02T01:01:36.088Z,9.31
2019-05-02T01:01:41.090Z,8.19
2019-05-02T01:01:46.092Z,7.52
2019-05-02T01:01:51.091Z,7.31
2019-05-02T01:01:56.092Z,6.05
2019-05-02T01:02:01.094Z,4.40
2019-05-02T01:02:06.096Z,5.16
2019-05-02T01:02:11.095Z,7.83
2019-05-02T01:02:16.096Z,7.41
2019-05-02T01:02:21.549Z,5.60
2019-05-02T01:02:26.098Z,4.26
2019-05-02T01:02:31.099Z,6.70
2019-05-02T01:02:36.100Z,5.85
2019-05-02T01:02:41.103Z,6.10
2019-05-02T01:02:46.241Z,6.84
2019-05-02T01:02:51.103Z,6.71
2019-05-02T01:02:56.104Z,9.46
2019-05-02T01:03:01.135Z,7.94
2019-05-02T01:03:06.106Z,6.87
2019-05-02T01:03:11.105Z,6.80
2019-05-02T01:03:16.107Z,8.77
2019-05-02T01:03:21.108Z,7.71
2019-05-02T01:03:26.109Z,8.49
2019-05-02T01:03:31.111Z,7.99
2019-05-02T01:03:36.110Z,8.76
2019-05-02T01:03:41.113Z,8.00
2019-05-02T01:03:46.114Z,7.46
2019-05-02T01:03:51.116Z,6.57
2019-05-02T01:03:56.118Z,8.29
2019-05-02T01:04:01.118Z,8.68
2019-05-02T01:04:06.209Z,7.69
2019-05-02T01:04:11.120Z,7.06
2019-05-02T01:04:16.120Z,7.16
2019-05-02T01:04:21.121Z,7.19
2019-05-02T01:04:26.121Z,6.62
2019-05-02T01:04:31.123Z,6.35
2019-05-02T01:04:36.125Z,8.33
2019-05-02T01:04:41.126Z,7.57
2019-05-02T01:04:46.131Z,7.03
2019-05-02T01:04:51.127Z,7.86
2019-05-02T01:04:56.127Z,8.08
2019-05-02T01:05:01.127Z,7.49
2019-05-02T01:05:06.130Z,5.54
2019-05-02T01:05:11.130Z,8.12
2019-05-02T01:05:16.236Z,9.64
2019-05-02T01:05:21.132Z,8.66
2019-05-02T01:05:26.705Z,7.68
2019-05-02T01:05:31.134Z,6.99
2019-05-02T01:05:36.140Z,5.47
2019-05-02T01:05:41.135Z,6.34
2019-05-02T01:05:46.140Z,6.46
2019-05-02T01:05:51.256Z,6.96
2019-05-02T01:05:56.138Z,7.42
2019-05-02T01:06:01.140Z,6.33
2019-05-02T01:06:06.359Z,6.62
2019-05-02T01:06:11.142Z,6.35
2019-05-02T01:06:16.143Z,6.92